sensor_id;sensor_type;location;lat;lon;timestamp;P1;durP1;ratioP1;P2;durP2;ratioP2
65583;SDS011;62116;43.582;1.470;2022-08-21T00:00:22;1.95;;;0.90;;
65583;SDS011;62116;43.582;1.470;2022-08-21T00:02:57;2.10;;;1.00;;
65583;SDS011;62116;43.582;1.470;2022-08-21T00:05:28;1.02;;;0.80;;
65583;SDS011;62116;43.582;1.470;2022-08-21T00:07:55;1.60;;;0.90;;
65583;SDS011;62116;43.582;1.470;2022-08-21T00:10:21;3.10;;;1.00;;
65583;SDS011;62116;43.582;1.470;2022-08-21T00:12:47;2.38;;;0.93;;
65583;SDS011;62116;43.582;1.470;2022-08-21T00:15:14;4.22;;;1.00;;
65583;SDS011;62116;43.582;1.470;2022-08-21T00:17:42;2.50;;;0.90;;
65583;SDS011;62116;43.582;1.470;2022-08-21T00:20:08;1.65;;;0.85;;
65583;SDS011;62116;43.582;1.470;2022-08-21T00:22:35;1.95;;;0.98;;
65583;SDS011;62116;43.582;1.470;2022-08-21T00:25:01;1.70;;;0.90;;
65583;SDS011;62116;43.582;1.470;2022-08-21T00:27:28;1.90;;;0.93;;
65583;SDS011;62116;43.582;1.470;2022-08-21T00:29:53;1.42;;;0.95;;
65583;SDS011;62116;43.582;1.470;2022-08-21T00:32:20;2.53;;;1.00;;
65583;SDS011;62116;43.582;1.470;2022-08-21T00:34:47;1.65;;;1.02;;
65583;SDS011;62116;43.582;1.470;2022-08-21T00:37:12;3.13;;;1.05;;
65583;SDS011;62116;43.582;1.470;2022-08-21T00:39:37;2.22;;;1.00;;
65583;SDS011;62116;43.582;1.470;2022-08-21T00:42:03;3.05;;;1.00;;
65583;SDS011;62116;43.582;1.470;2022-08-21T00:44:29;2.70;;;1.08;;
65583;SDS011;62116;43.582;1.470;2022-08-21T00:46:56;2.17;;;1.05;;
65583;SDS011;62116;43.582;1.470;2022-08-21T00:49:21;1.27;;;0.90;;
65583;SDS011;62116;43.582;1.470;2022-08-21T00:51:51;3.40;;;1.00;;
65583;SDS011;62116;43.582;1.470;2022-08-21T00:54:21;2.08;;;1.10;;
65583;SDS011;62116;43.582;1.470;2022-08-21T00:56:50;1.75;;;0.90;;
65583;SDS011;62116;43.582;1.470;2022-08-21T00:59:19;1.55;;;0.98;;
65583;SDS011;62116;43.582;1.470;2022-08-21T01:01:46;1.23;;;0.90;;
65583;SDS011;62116;43.582;1.470;2022-08-21T01:04:12;1.52;;;1.00;;
65583;SDS011;62116;43.582;1.470;2022-08-21T01:06:38;2.03;;;0.90;;
65583;SDS011;62116;43.582;1.470;2022-08-21T01:09:03;1.20;;;1.00;;
65583;SDS011;62116;43.582;1.470;2022-08-21T01:11:28;1.90;;;1.02;;
65583;SDS011;62116;43.582;1.470;2022-08-21T01:13:55;3.65;;;0.98;;
65583;SDS011;62116;43.582;1.470;2022-08-21T01:16:20;2.20;;;1.00;;
65583;SDS011;62116;43.582;1.470;2022-08-21T01:18:47;2.53;;;1.05;;
65583;SDS011;62116;43.582;1.470;2022-08-21T01:21:14;2.25;;;0.88;;
65583;SDS011;62116;43.582;1.470;2022-08-21T01:23:44;3.55;;;1.00;;
65583;SDS011;62116;43.582;1.470;2022-08-21T01:26:11;1.60;;;0.95;;
65583;SDS011;62116;43.582;1.470;2022-08-21T01:28:38;1.88;;;1.00;;
65583;SDS011;62116;43.582;1.470;2022-08-21T01:31:09;1.40;;;1.00;;
65583;SDS011;62116;43.582;1.470;2022-08-21T01:33:37;5.72;;;1.00;;
65583;SDS011;62116;43.582;1.470;2022-08-21T01:36:03;1.83;;;1.00;;
65583;SDS011;62116;43.582;1.470;2022-08-21T01:38:29;1.27;;;0.90;;
65583;SDS011;62116;43.582;1.470;2022-08-21T01:40:55;1.77;;;0.80;;
65583;SDS011;62116;43.582;1.470;2022-08-21T01:43:20;2.03;;;0.88;;
65583;SDS011;62116;43.582;1.470;2022-08-21T01:45:45;1.52;;;1.10;;
65583;SDS011;62116;43.582;1.470;2022-08-21T01:48:11;2.10;;;1.10;;
65583;SDS011;62116;43.582;1.470;2022-08-21T01:50:36;1.52;;;1.05;;
65583;SDS011;62116;43.582;1.470;2022-08-21T01:53:02;2.42;;;1.15;;
65583;SDS011;62116;43.582;1.470;2022-08-21T01:55:27;2.63;;;1.13;;
65583;SDS011;62116;43.582;1.470;2022-08-21T01:57:52;2.25;;;1.00;;
65583;SDS011;62116;43.582;1.470;2022-08-21T02:00:19;2.10;;;1.23;;
65583;SDS011;62116;43.582;1.470;2022-08-21T02:02:48;1.55;;;1.02;;
65583;SDS011;62116;43.582;1.470;2022-08-21T02:05:14;2.45;;;1.10;;
65583;SDS011;62116;43.582;1.470;2022-08-21T02:07:41;1.25;;;1.00;;
65583;SDS011;62116;43.582;1.470;2022-08-21T02:10:09;2.33;;;1.10;;
65583;SDS011;62116;43.582;1.470;2022-08-21T02:12:37;4.90;;;1.10;;
65583;SDS011;62116;43.582;1.470;2022-08-21T02:15:03;1.50;;;0.98;;
65583;SDS011;62116;43.582;1.470;2022-08-21T02:17:39;1.90;;;1.10;;
65583;SDS011;62116;43.582;1.470;2022-08-21T02:20:04;2.70;;;1.30;;
65583;SDS011;62116;43.582;1.470;2022-08-21T02:22:30;3.40;;;1.20;;
65583;SDS011;62116;43.582;1.470;2022-08-21T02:24:56;3.30;;;1.05;;
65583;SDS011;62116;43.582;1.470;2022-08-21T02:27:22;4.10;;;1.20;;
65583;SDS011;62116;43.582;1.470;2022-08-21T02:29:48;3.33;;;1.20;;
65583;SDS011;62116;43.582;1.470;2022-08-21T02:32:14;2.35;;;1.00;;
65583;SDS011;62116;43.582;1.470;2022-08-21T02:34:39;1.77;;;1.00;;
65583;SDS011;62116;43.582;1.470;2022-08-21T02:37:04;2.28;;;1.15;;
65583;SDS011;62116;43.582;1.470;2022-08-21T02:39:30;2.70;;;1.13;;
65583;SDS011;62116;43.582;1.470;2022-08-21T02:41:55;3.08;;;1.00;;
65583;SDS011;62116;43.582;1.470;2022-08-21T02:44:20;1.75;;;1.10;;
65583;SDS011;62116;43.582;1.470;2022-08-21T02:46:46;4.10;;;1.27;;
65583;SDS011;62116;43.582;1.470;2022-08-21T02:49:11;2.45;;;1.13;;
65583;SDS011;62116;43.582;1.470;2022-08-21T02:51:37;3.03;;;1.10;;
65583;SDS011;62116;43.582;1.470;2022-08-21T02:54:02;2.22;;;1.10;;
65583;SDS011;62116;43.582;1.470;2022-08-21T02:56:27;1.27;;;0.90;;
65583;SDS011;62116;43.582;1.470;2022-08-21T02:58:54;2.25;;;1.10;;
65583;SDS011;62116;43.582;1.470;2022-08-21T03:01:19;4.20;;;1.00;;
65583;SDS011;62116;43.582;1.470;2022-08-21T03:03:47;1.48;;;1.10;;
65583;SDS011;62116;43.582;1.470;2022-08-21T03:06:16;3.05;;;1.10;;
65583;SDS011;62116;43.582;1.470;2022-08-21T03:08:43;2.00;;;1.10;;
65583;SDS011;62116;43.582;1.470;2022-08-21T03:11:10;2.50;;;0.90;;
65583;SDS011;62116;43.582;1.470;2022-08-21T03:13:37;1.25;;;1.00;;
65583;SDS011;62116;43.582;1.470;2022-08-21T03:16:03;2.00;;;1.20;;
65583;SDS011;62116;43.582;1.470;2022-08-21T03:18:29;2.38;;;1.10;;
65583;SDS011;62116;43.582;1.470;2022-08-21T03:20:54;2.05;;;1.10;;
65583;SDS011;62116;43.582;1.470;2022-08-21T03:23:19;1.20;;;0.88;;
65583;SDS011;62116;43.582;1.470;2022-08-21T03:25:45;1.63;;;1.00;;
65583;SDS011;62116;43.582;1.470;2022-08-21T03:28:15;1.80;;;0.90;;
65583;SDS011;62116;43.582;1.470;2022-08-21T03:30:43;1.77;;;1.00;;
65583;SDS011;62116;43.582;1.470;2022-08-21T03:33:09;2.53;;;1.00;;
65583;SDS011;62116;43.582;1.470;2022-08-21T03:35:35;1.88;;;1.00;;
65583;SDS011;62116;43.582;1.470;2022-08-21T03:38:00;3.17;;;0.90;;
65583;SDS011;62116;43.582;1.470;2022-08-21T03:40:26;1.20;;;0.80;;
65583;SDS011;62116;43.582;1.470;2022-08-21T03:42:52;1.40;;;0.90;;
65583;SDS011;62116;43.582;1.470;2022-08-21T03:45:18;1.88;;;0.90;;
65583;SDS011;62116;43.582;1.470;2022-08-21T03:47:54;2.22;;;1.00;;
65583;SDS011;62116;43.582;1.470;2022-08-21T03:50:23;1.92;;;1.02;;
65583;SDS011;62116;43.582;1.470;2022-08-21T03:52:49;1.40;;;0.90;;
65583;SDS011;62116;43.582;1.470;2022-08-21T03:55:14;1.40;;;0.90;;
65583;SDS011;62116;43.582;1.470;2022-08-21T03:57:40;0.77;;;0.73;;
65583;SDS011;62116;43.582;1.470;2022-08-21T04:00:06;2.45;;;1.00;;
65583;SDS011;62116;43.582;1.470;2022-08-21T04:02:37;2.53;;;0.90;;
65583;SDS011;62116;43.582;1.470;2022-08-21T04:05:03;1.58;;;1.02;;
65583;SDS011;62116;43.582;1.470;2022-08-21T04:07:29;1.50;;;0.85;;
65583;SDS011;62116;43.582;1.470;2022-08-21T04:09:55;1.95;;;0.93;;
65583;SDS011;62116;43.582;1.470;2022-08-21T04:12:20;1.50;;;0.90;;
65583;SDS011;62116;43.582;1.470;2022-08-21T04:14:46;1.58;;;0.90;;
65583;SDS011;62116;43.582;1.470;2022-08-21T04:17:12;2.25;;;0.90;;
65583;SDS011;62116;43.582;1.470;2022-08-21T04:19:38;1.23;;;0.88;;
65583;SDS011;62116;43.582;1.470;2022-08-21T04:22:03;2.13;;;0.90;;
65583;SDS011;62116;43.582;1.470;2022-08-21T04:24:29;2.08;;;0.88;;
65583;SDS011;62116;43.582;1.470;2022-08-21T04:26:54;1.23;;;0.82;;
65583;SDS011;62116;43.582;1.470;2022-08-21T04:29:20;2.13;;;0.88;;
65583;SDS011;62116;43.582;1.470;2022-08-21T04:31:46;1.48;;;0.80;;
65583;SDS011;62116;43.582;1.470;2022-08-21T04:34:11;2.33;;;0.90;;
65583;SDS011;62116;43.582;1.470;2022-08-21T04:36:37;1.10;;;0.80;;
65583;SDS011;62116;43.582;1.470;2022-08-21T04:39:02;1.23;;;0.80;;
65583;SDS011;62116;43.582;1.470;2022-08-21T04:41:28;2.42;;;1.00;;
65583;SDS011;62116;43.582;1.470;2022-08-21T04:43:54;2.42;;;1.20;;
65583;SDS011;62116;43.582;1.470;2022-08-21T04:46:20;2.03;;;0.88;;
65583;SDS011;62116;43.582;1.470;2022-08-21T04:48:46;2.63;;;1.10;;
65583;SDS011;62116;43.582;1.470;2022-08-21T04:51:13;1.30;;;1.00;;
65583;SDS011;62116;43.582;1.470;2022-08-21T04:54:09;2.08;;;0.90;;
65583;SDS011;62116;43.582;1.470;2022-08-21T04:56:40;2.08;;;0.80;;
65583;SDS011;62116;43.582;1.470;2022-08-21T04:59:13;1.98;;;1.10;;
65583;SDS011;62116;43.582;1.470;2022-08-21T05:01:42;2.05;;;0.90;;
65583;SDS011;62116;43.582;1.470;2022-08-21T05:04:10;1.80;;;0.90;;
65583;SDS011;62116;43.582;1.470;2022-08-21T05:06:39;3.05;;;1.20;;
65583;SDS011;62116;43.582;1.470;2022-08-21T05:09:07;2.00;;;1.00;;
65583;SDS011;62116;43.582;1.470;2022-08-21T05:11:34;1.90;;;1.10;;
65583;SDS011;62116;43.582;1.470;2022-08-21T05:14:00;1.75;;;1.00;;
65583;SDS011;62116;43.582;1.470;2022-08-21T05:16:26;2.42;;;1.00;;
65583;SDS011;62116;43.582;1.470;2022-08-21T05:18:51;1.45;;;0.90;;
65583;SDS011;62116;43.582;1.470;2022-08-21T05:21:17;1.55;;;0.88;;
65583;SDS011;62116;43.582;1.470;2022-08-21T05:23:42;2.45;;;0.90;;
65583;SDS011;62116;43.582;1.470;2022-08-21T05:26:08;2.58;;;1.00;;
65583;SDS011;62116;43.582;1.470;2022-08-21T05:28:33;1.50;;;0.90;;
65583;SDS011;62116;43.582;1.470;2022-08-21T05:30:59;2.20;;;1.05;;
65583;SDS011;62116;43.582;1.470;2022-08-21T05:33:24;3.58;;;1.00;;
65583;SDS011;62116;43.582;1.470;2022-08-21T05:35:50;1.58;;;0.93;;
65583;SDS011;62116;43.582;1.470;2022-08-21T05:38:17;1.55;;;0.93;;
65583;SDS011;62116;43.582;1.470;2022-08-21T05:40:43;1.88;;;1.08;;
65583;SDS011;62116;43.582;1.470;2022-08-21T05:43:09;1.60;;;1.00;;
65583;SDS011;62116;43.582;1.470;2022-08-21T05:45:34;1.63;;;0.90;;
65583;SDS011;62116;43.582;1.470;2022-08-21T05:48:16;2.58;;;1.10;;
65583;SDS011;62116;43.582;1.470;2022-08-21T05:50:46;1.92;;;0.90;;
65583;SDS011;62116;43.582;1.470;2022-08-21T05:53:12;1.73;;;0.90;;
65583;SDS011;62116;43.582;1.470;2022-08-21T05:55:39;2.88;;;0.93;;
65583;SDS011;62116;43.582;1.470;2022-08-21T05:58:06;1.95;;;0.90;;
65583;SDS011;62116;43.582;1.470;2022-08-21T06:00:31;2.28;;;1.10;;
65583;SDS011;62116;43.582;1.470;2022-08-21T06:02:58;3.08;;;1.10;;
65583;SDS011;62116;43.582;1.470;2022-08-21T06:05:23;2.05;;;1.13;;
65583;SDS011;62116;43.582;1.470;2022-08-21T06:07:49;1.95;;;1.00;;
65583;SDS011;62116;43.582;1.470;2022-08-21T06:10:14;4.10;;;1.10;;
65583;SDS011;62116;43.582;1.470;2022-08-21T06:12:40;2.45;;;1.20;;
65583;SDS011;62116;43.582;1.470;2022-08-21T06:15:05;3.80;;;1.20;;
65583;SDS011;62116;43.582;1.470;2022-08-21T06:17:31;2.40;;;1.10;;
65583;SDS011;62116;43.582;1.470;2022-08-21T06:19:57;1.95;;;0.93;;
65583;SDS011;62116;43.582;1.470;2022-08-21T06:22:22;2.35;;;1.08;;
65583;SDS011;62116;43.582;1.470;2022-08-21T06:24:48;2.13;;;1.13;;
65583;SDS011;62116;43.582;1.470;2022-08-21T06:27:13;1.75;;;1.10;;
65583;SDS011;62116;43.582;1.470;2022-08-21T06:29:40;3.03;;;1.02;;
65583;SDS011;62116;43.582;1.470;2022-08-21T06:32:06;4.05;;;1.13;;
65583;SDS011;62116;43.582;1.470;2022-08-21T06:34:35;1.70;;;1.00;;
65583;SDS011;62116;43.582;1.470;2022-08-21T06:37:01;2.78;;;1.10;;
65583;SDS011;62116;43.582;1.470;2022-08-21T06:39:27;2.90;;;1.08;;
65583;SDS011;62116;43.582;1.470;2022-08-21T06:41:52;2.60;;;1.23;;
65583;SDS011;62116;43.582;1.470;2022-08-21T06:44:18;2.10;;;1.17;;
65583;SDS011;62116;43.582;1.470;2022-08-21T06:46:43;2.53;;;1.15;;
65583;SDS011;62116;43.582;1.470;2022-08-21T06:49:09;1.55;;;1.08;;
65583;SDS011;62116;43.582;1.470;2022-08-21T06:51:34;1.65;;;1.08;;
65583;SDS011;62116;43.582;1.470;2022-08-21T06:54:00;3.78;;;1.00;;
65583;SDS011;62116;43.582;1.470;2022-08-21T06:56:25;2.45;;;1.05;;
65583;SDS011;62116;43.582;1.470;2022-08-21T06:58:50;4.15;;;1.05;;
65583;SDS011;62116;43.582;1.470;2022-08-21T07:01:17;1.58;;;1.00;;
65583;SDS011;62116;43.582;1.470;2022-08-21T07:03:44;2.15;;;1.00;;
65583;SDS011;62116;43.582;1.470;2022-08-21T07:06:09;2.47;;;0.93;;
65583;SDS011;62116;43.582;1.470;2022-08-21T07:08:36;4.15;;;1.20;;
65583;SDS011;62116;43.582;1.470;2022-08-21T07:11:05;1.65;;;0.90;;
65583;SDS011;62116;43.582;1.470;2022-08-21T07:13:34;3.42;;;1.05;;
65583;SDS011;62116;43.582;1.470;2022-08-21T07:16:00;1.92;;;0.80;;
65583;SDS011;62116;43.582;1.470;2022-08-21T07:18:26;1.13;;;0.98;;
65583;SDS011;62116;43.582;1.470;2022-08-21T07:20:51;2.70;;;0.93;;
65583;SDS011;62116;43.582;1.470;2022-08-21T07:25:53;2.22;;;1.17;;
65583;SDS011;62116;43.582;1.470;2022-08-21T07:28:19;2.20;;;0.90;;
65583;SDS011;62116;43.582;1.470;2022-08-21T07:30:45;2.78;;;1.00;;
65583;SDS011;62116;43.582;1.470;2022-08-21T07:33:11;1.25;;;0.90;;
65583;SDS011;62116;43.582;1.470;2022-08-21T07:35:36;2.17;;;1.00;;
65583;SDS011;62116;43.582;1.470;2022-08-21T07:38:02;2.30;;;0.90;;
65583;SDS011;62116;43.582;1.470;2022-08-21T07:40:27;1.75;;;0.90;;
65583;SDS011;62116;43.582;1.470;2022-08-21T07:42:52;1.33;;;0.85;;
65583;SDS011;62116;43.582;1.470;2022-08-21T07:45:20;1.25;;;0.98;;
65583;SDS011;62116;43.582;1.470;2022-08-21T07:47:47;2.17;;;0.90;;
65583;SDS011;62116;43.582;1.470;2022-08-21T07:50:13;3.00;;;0.90;;
65583;SDS011;62116;43.582;1.470;2022-08-21T07:52:40;1.23;;;0.80;;
65583;SDS011;62116;43.582;1.470;2022-08-21T07:55:07;1.13;;;0.70;;
65583;SDS011;62116;43.582;1.470;2022-08-21T07:57:36;1.47;;;0.90;;
65583;SDS011;62116;43.582;1.470;2022-08-21T08:00:10;0.98;;;0.70;;
65583;SDS011;62116;43.582;1.470;2022-08-21T08:02:38;0.88;;;0.70;;
65583;SDS011;62116;43.582;1.470;2022-08-21T08:05:05;2.00;;;1.17;;
65583;SDS011;62116;43.582;1.470;2022-08-21T08:07:34;1.50;;;0.90;;
65583;SDS011;62116;43.582;1.470;2022-08-21T08:10:00;1.38;;;0.80;;
65583;SDS011;62116;43.582;1.470;2022-08-21T08:12:26;1.30;;;0.90;;
65583;SDS011;62116;43.582;1.470;2022-08-21T08:14:55;1.38;;;0.80;;
65583;SDS011;62116;43.582;1.470;2022-08-21T08:17:24;1.23;;;0.75;;
65583;SDS011;62116;43.582;1.470;2022-08-21T08:19:50;1.92;;;0.90;;
65583;SDS011;62116;43.582;1.470;2022-08-21T08:22:16;1.90;;;0.90;;
65583;SDS011;62116;43.582;1.470;2022-08-21T08:24:44;1.65;;;0.90;;
65583;SDS011;62116;43.582;1.470;2022-08-21T08:27:10;2.55;;;0.82;;
65583;SDS011;62116;43.582;1.470;2022-08-21T08:29:36;2.17;;;1.10;;
65583;SDS011;62116;43.582;1.470;2022-08-21T08:32:03;1.67;;;1.05;;
65583;SDS011;62116;43.582;1.470;2022-08-21T08:34:30;1.88;;;0.93;;
65583;SDS011;62116;43.582;1.470;2022-08-21T08:36:55;2.05;;;0.98;;
65583;SDS011;62116;43.582;1.470;2022-08-21T08:39:22;1.52;;;0.93;;
65583;SDS011;62116;43.582;1.470;2022-08-21T08:41:48;1.73;;;0.93;;
65583;SDS011;62116;43.582;1.470;2022-08-21T08:44:16;2.45;;;0.82;;
65583;SDS011;62116;43.582;1.470;2022-08-21T08:46:45;1.15;;;0.93;;
65583;SDS011;62116;43.582;1.470;2022-08-21T08:49:20;1.23;;;0.90;;
65583;SDS011;62116;43.582;1.470;2022-08-21T08:51:57;1.05;;;0.80;;
65583;SDS011;62116;43.582;1.470;2022-08-21T08:57:07;0.82;;;0.63;;
65583;SDS011;62116;43.582;1.470;2022-08-21T08:59:41;1.40;;;0.73;;
65583;SDS011;62116;43.582;1.470;2022-08-21T09:02:09;1.08;;;0.70;;
65583;SDS011;62116;43.582;1.470;2022-08-21T09:04:36;2.35;;;0.70;;
65583;SDS011;62116;43.582;1.470;2022-08-21T09:07:09;1.77;;;0.70;;
65583;SDS011;62116;43.582;1.470;2022-08-21T09:15:02;2.50;;;0.80;;
65583;SDS011;62116;43.582;1.470;2022-08-21T09:20:23;1.33;;;0.70;;
65583;SDS011;62116;43.582;1.470;2022-08-21T09:25:52;1.30;;;0.80;;
65583;SDS011;62116;43.582;1.470;2022-08-21T09:28:25;0.60;;;0.60;;
65583;SDS011;62116;43.582;1.470;2022-08-21T09:30:51;2.53;;;0.80;;
65583;SDS011;62116;43.582;1.470;2022-08-21T09:33:21;1.00;;;0.70;;
65583;SDS011;62116;43.582;1.470;2022-08-21T09:35:53;0.98;;;0.73;;
65583;SDS011;62116;43.582;1.470;2022-08-21T09:38:32;1.40;;;0.50;;
65583;SDS011;62116;43.582;1.470;2022-08-21T09:41:05;1.10;;;0.73;;
65583;SDS011;62116;43.582;1.470;2022-08-21T09:43:34;1.38;;;0.65;;
65583;SDS011;62116;43.582;1.470;2022-08-21T09:48:55;1.85;;;0.70;;
65583;SDS011;62116;43.582;1.470;2022-08-21T09:51:23;0.77;;;0.60;;
65583;SDS011;62116;43.582;1.470;2022-08-21T09:56:36;1.30;;;0.70;;
65583;SDS011;62116;43.582;1.470;2022-08-21T09:59:27;2.28;;;0.65;;
65583;SDS011;62116;43.582;1.470;2022-08-21T10:01:58;1.27;;;0.70;;
65583;SDS011;62116;43.582;1.470;2022-08-21T10:04:33;1.27;;;0.70;;
65583;SDS011;62116;43.582;1.470;2022-08-21T10:07:10;3.10;;;0.70;;
65583;SDS011;62116;43.582;1.470;2022-08-21T10:09:39;0.75;;;0.60;;
65583;SDS011;62116;43.582;1.470;2022-08-21T10:14:52;1.73;;;0.73;;
65583;SDS011;62116;43.582;1.470;2022-08-21T10:17:35;0.63;;;0.63;;
65583;SDS011;62116;43.582;1.470;2022-08-21T10:25:23;1.83;;;0.70;;
65583;SDS011;62116;43.582;1.470;2022-08-21T10:31:32;1.50;;;0.70;;
65583;SDS011;62116;43.582;1.470;2022-08-21T10:36:26;24.88;;;1.98;;
65583;SDS011;62116;43.582;1.470;2022-08-21T10:49:46;2.25;;;0.70;;
65583;SDS011;62116;43.582;1.470;2022-08-21T10:52:36;1.48;;;0.80;;
65583;SDS011;62116;43.582;1.470;2022-08-21T10:55:26;0.80;;;0.70;;
65583;SDS011;62116;43.582;1.470;2022-08-21T11:00:48;7.28;;;0.82;;
65583;SDS011;62116;43.582;1.470;2022-08-21T11:03:24;3.60;;;0.77;;
65583;SDS011;62116;43.582;1.470;2022-08-21T11:05:55;2.03;;;0.65;;
65583;SDS011;62116;43.582;1.470;2022-08-21T11:08:35;4.03;;;0.70;;
65583;SDS011;62116;43.582;1.470;2022-08-21T11:11:06;5.80;;;0.90;;
65583;SDS011;62116;43.582;1.470;2022-08-21T11:13:44;2.83;;;0.70;;
65583;SDS011;62116;43.582;1.470;2022-08-21T11:19:01;1.55;;;0.75;;
65583;SDS011;62116;43.582;1.470;2022-08-21T11:21:37;1.63;;;0.82;;
65583;SDS011;62116;43.582;1.470;2022-08-21T11:26:52;1.30;;;0.70;;
65583;SDS011;62116;43.582;1.470;2022-08-21T11:29:25;1.58;;;0.73;;
65583;SDS011;62116;43.582;1.470;2022-08-21T11:32:00;1.20;;;0.70;;
65583;SDS011;62116;43.582;1.470;2022-08-21T11:34:54;1.15;;;0.70;;
65583;SDS011;62116;43.582;1.470;2022-08-21T11:43:17;1.20;;;0.70;;
65583;SDS011;62116;43.582;1.470;2022-08-21T11:45:59;2.70;;;0.60;;
65583;SDS011;62116;43.582;1.470;2022-08-21T11:51:05;1.10;;;0.60;;
65583;SDS011;62116;43.582;1.470;2022-08-21T11:56:10;1.20;;;0.60;;
65583;SDS011;62116;43.582;1.470;2022-08-21T11:58:41;2.08;;;0.60;;
65583;SDS011;62116;43.582;1.470;2022-08-21T12:01:17;1.40;;;0.50;;
65583;SDS011;62116;43.582;1.470;2022-08-21T12:03:55;1.00;;;0.70;;
65583;SDS011;62116;43.582;1.470;2022-08-21T12:09:05;1.77;;;0.60;;
65583;SDS011;62116;43.582;1.470;2022-08-21T12:11:43;1.70;;;0.63;;
65583;SDS011;62116;43.582;1.470;2022-08-21T12:14:13;1.63;;;0.70;;
65583;SDS011;62116;43.582;1.470;2022-08-21T12:16:42;3.30;;;0.90;;
65583;SDS011;62116;43.582;1.470;2022-08-21T12:21:49;1.42;;;0.80;;
65583;SDS011;62116;43.582;1.470;2022-08-21T12:24:20;2.35;;;0.60;;
65583;SDS011;62116;43.582;1.470;2022-08-21T12:29:50;4.20;;;0.80;;
65583;SDS011;62116;43.582;1.470;2022-08-21T12:32:41;0.80;;;0.68;;
65583;SDS011;62116;43.582;1.470;2022-08-21T12:35:13;1.90;;;0.70;;
65583;SDS011;62116;43.582;1.470;2022-08-21T12:37:45;2.08;;;0.90;;
65583;SDS011;62116;43.582;1.470;2022-08-21T12:42:44;2.40;;;0.82;;
65583;SDS011;62116;43.582;1.470;2022-08-21T12:45:19;0.93;;;0.57;;
65583;SDS011;62116;43.582;1.470;2022-08-21T12:47:52;2.60;;;0.70;;
65583;SDS011;62116;43.582;1.470;2022-08-21T12:50:33;0.98;;;0.60;;
65583;SDS011;62116;43.582;1.470;2022-08-21T12:55:48;1.52;;;0.60;;
65583;SDS011;62116;43.582;1.470;2022-08-21T12:58:21;1.73;;;0.70;;
65583;SDS011;62116;43.582;1.470;2022-08-21T13:00:52;1.55;;;0.68;;
65583;SDS011;62116;43.582;1.470;2022-08-21T13:03:20;0.70;;;0.50;;
65583;SDS011;62116;43.582;1.470;2022-08-21T13:05:47;1.27;;;0.65;;
65583;SDS011;62116;43.582;1.470;2022-08-21T13:08:13;1.77;;;0.60;;
65583;SDS011;62116;43.582;1.470;2022-08-21T13:10:40;0.52;;;0.52;;
65583;SDS011;62116;43.582;1.470;2022-08-21T13:13:07;0.60;;;0.55;;
65583;SDS011;62116;43.582;1.470;2022-08-21T13:15:44;1.02;;;0.70;;
65583;SDS011;62116;43.582;1.470;2022-08-21T13:18:18;1.17;;;0.70;;
65583;SDS011;62116;43.582;1.470;2022-08-21T13:20:49;1.20;;;0.60;;
65583;SDS011;62116;43.582;1.470;2022-08-21T13:23:22;0.93;;;0.63;;
65583;SDS011;62116;43.582;1.470;2022-08-21T13:25:48;2.38;;;0.90;;
65583;SDS011;62116;43.582;1.470;2022-08-21T13:28:13;2.55;;;0.70;;
65583;SDS011;62116;43.582;1.470;2022-08-21T13:30:43;1.33;;;0.80;;
65583;SDS011;62116;43.582;1.470;2022-08-21T13:33:10;0.80;;;0.70;;
65583;SDS011;62116;43.582;1.470;2022-08-21T13:35:46;1.15;;;0.80;;
65583;SDS011;62116;43.582;1.470;2022-08-21T13:38:23;2.03;;;0.80;;
65583;SDS011;62116;43.582;1.470;2022-08-21T13:40:56;2.72;;;0.75;;
65583;SDS011;62116;43.582;1.470;2022-08-21T13:43:45;3.05;;;0.70;;
65583;SDS011;62116;43.582;1.470;2022-08-21T13:46:13;1.65;;;0.80;;
65583;SDS011;62116;43.582;1.470;2022-08-21T13:48:40;0.75;;;0.70;;
65583;SDS011;62116;43.582;1.470;2022-08-21T13:51:06;1.55;;;0.90;;
65583;SDS011;62116;43.582;1.470;2022-08-21T13:53:43;1.80;;;0.70;;
65583;SDS011;62116;43.582;1.470;2022-08-21T13:56:28;0.80;;;0.70;;
65583;SDS011;62116;43.582;1.470;2022-08-21T13:58:56;1.67;;;0.70;;
65583;SDS011;62116;43.582;1.470;2022-08-21T14:04:07;1.17;;;0.85;;
65583;SDS011;62116;43.582;1.470;2022-08-21T14:06:44;1.88;;;0.80;;
65583;SDS011;62116;43.582;1.470;2022-08-21T14:09:12;1.73;;;1.20;;
65583;SDS011;62116;43.582;1.470;2022-08-21T14:11:48;2.90;;;1.00;;
65583;SDS011;62116;43.582;1.470;2022-08-21T14:14:22;1.38;;;0.95;;
65583;SDS011;62116;43.582;1.470;2022-08-21T14:16:55;1.83;;;1.00;;
65583;SDS011;62116;43.582;1.470;2022-08-21T14:19:24;1.75;;;1.00;;
65583;SDS011;62116;43.582;1.470;2022-08-21T14:22:21;1.48;;;0.90;;
65583;SDS011;62116;43.582;1.470;2022-08-21T14:24:48;1.25;;;0.90;;
65583;SDS011;62116;43.582;1.470;2022-08-21T14:27:15;2.15;;;1.00;;
65583;SDS011;62116;43.582;1.470;2022-08-21T14:29:42;1.48;;;0.95;;
65583;SDS011;62116;43.582;1.470;2022-08-21T14:32:10;1.40;;;0.98;;
65583;SDS011;62116;43.582;1.470;2022-08-21T14:34:39;1.70;;;1.00;;
65583;SDS011;62116;43.582;1.470;2022-08-21T14:37:04;1.50;;;0.90;;
65583;SDS011;62116;43.582;1.470;2022-08-21T14:39:30;1.30;;;0.90;;
65583;SDS011;62116;43.582;1.470;2022-08-21T14:41:56;1.35;;;0.90;;
65583;SDS011;62116;43.582;1.470;2022-08-21T14:44:22;2.13;;;0.93;;
65583;SDS011;62116;43.582;1.470;2022-08-21T14:46:47;1.60;;;1.00;;
65583;SDS011;62116;43.582;1.470;2022-08-21T14:49:13;1.88;;;0.95;;
65583;SDS011;62116;43.582;1.470;2022-08-21T14:51:38;2.78;;;1.05;;
65583;SDS011;62116;43.582;1.470;2022-08-21T14:54:04;2.00;;;1.00;;
65583;SDS011;62116;43.582;1.470;2022-08-21T14:56:31;1.67;;;1.10;;
65583;SDS011;62116;43.582;1.470;2022-08-21T14:58:59;3.25;;;1.10;;
65583;SDS011;62116;43.582;1.470;2022-08-21T15:01:29;4.28;;;1.20;;
65583;SDS011;62116;43.582;1.470;2022-08-21T15:03:57;1.48;;;0.98;;
65583;SDS011;62116;43.582;1.470;2022-08-21T15:06:23;2.25;;;1.10;;
65583;SDS011;62116;43.582;1.470;2022-08-21T15:08:48;1.98;;;1.10;;
65583;SDS011;62116;43.582;1.470;2022-08-21T15:11:18;3.55;;;1.30;;
65583;SDS011;62116;43.582;1.470;2022-08-21T15:13:47;4.20;;;1.10;;
65583;SDS011;62116;43.582;1.470;2022-08-21T15:16:20;1.80;;;1.13;;
65583;SDS011;62116;43.582;1.470;2022-08-21T15:18:45;1.58;;;1.10;;
65583;SDS011;62116;43.582;1.470;2022-08-21T15:21:10;3.40;;;1.42;;
65583;SDS011;62116;43.582;1.470;2022-08-21T15:23:36;1.48;;;1.10;;
65583;SDS011;62116;43.582;1.470;2022-08-21T15:26:02;1.48;;;1.17;;
65583;SDS011;62116;43.582;1.470;2022-08-21T15:28:28;1.98;;;1.20;;
65583;SDS011;62116;43.582;1.470;2022-08-21T15:30:53;3.05;;;1.30;;
65583;SDS011;62116;43.582;1.470;2022-08-21T15:33:19;1.60;;;1.20;;
65583;SDS011;62116;43.582;1.470;2022-08-21T15:35:44;1.77;;;1.23;;
65583;SDS011;62116;43.582;1.470;2022-08-21T15:38:11;2.55;;;1.20;;
65583;SDS011;62116;43.582;1.470;2022-08-21T15:40:37;2.67;;;1.50;;
65583;SDS011;62116;43.582;1.470;2022-08-21T15:43:04;1.65;;;1.15;;
65583;SDS011;62116;43.582;1.470;2022-08-21T15:45:30;2.22;;;1.20;;
65583;SDS011;62116;43.582;1.470;2022-08-21T15:47:57;2.45;;;1.30;;
65583;SDS011;62116;43.582;1.470;2022-08-21T15:50:24;2.00;;;1.15;;
65583;SDS011;62116;43.582;1.470;2022-08-21T15:52:51;1.60;;;1.13;;
65583;SDS011;62116;43.582;1.470;2022-08-21T15:55:16;2.33;;;1.10;;
65583;SDS011;62116;43.582;1.470;2022-08-21T15:57:43;3.33;;;1.30;;
65583;SDS011;62116;43.582;1.470;2022-08-21T16:00:15;1.30;;;1.13;;
65583;SDS011;62116;43.582;1.470;2022-08-21T16:02:44;2.22;;;1.30;;
65583;SDS011;62116;43.582;1.470;2022-08-21T16:05:12;3.67;;;1.20;;
65583;SDS011;62116;43.582;1.470;2022-08-21T16:07:41;1.95;;;1.30;;
65583;SDS011;62116;43.582;1.470;2022-08-21T16:10:08;4.03;;;1.30;;
65583;SDS011;62116;43.582;1.470;2022-08-21T16:12:35;1.90;;;1.30;;
65583;SDS011;62116;43.582;1.470;2022-08-21T16:15:04;1.85;;;1.20;;
65583;SDS011;62116;43.582;1.470;2022-08-21T16:17:34;2.95;;;1.15;;